Mount Holly, Virginia
Current Conditions -  °F | °C
As of 11:32 PM on Wednesday 26 Nov 2014 (Local Time) from KNUI Reporting Station
Overcast Overcast  
Wind Chill: 32°   Ceiling: 1400
Heat Index: 39°   Visibility: 10mi
Dew Point: 33°   Wind: 10mph
Humidity: 79%   Direction: 290°WNW
Pressure: 30.01"   Gusts: NA
Location:  38.09°N, 76.72°W
Report Text: KNUI 270432Z AUTO 29009KT 10SM BKN014 BKN080 OVC100 04/01 A3001 RMK AO2 T00390006
Loading
Personal Weather Stations






























Interactive Weather Map New forecast layout! Learn more

10-Day Weather Forecast

Advertisements
Track Severe Weather on mobile